Time;durP1;ratioP1;P1;durP2;ratioP2;P2;SDS_P1;SDS_P2;PMS_P1;PMS_P2;Temp;Humidity;BMP_temperature;BMP_pressure;BME280_temperature;BME280_humidity;BME280_pressure;Samples;Min_cycle;Max_cycle;Signal;HPM_P1;HPM_P2
2021/11/22 00:00:17;;;;;;;2.80;1.43;;;6.00;98.00;;;;;;5091652;28;20517;-70
2021/11/22 00:02:47;;;;;;;1.90;1.47;;;6.00;98.00;;;;;;5091380;28;20456;-69
2021/11/22 00:05:16;;;;;;;2.90;1.63;;;6.00;98.00;;;;;;5091587;28;20461;-69
2021/11/22 00:07:44;;;;;;;2.37;1.53;;;5.90;98.00;;;;;;5094504;28;20463;-70
2021/11/22 00:10:14;;;;;;;1.47;1.47;;;5.90;98.00;;;;;;5095642;28;21085;-70
2021/11/22 00:12:41;;;;;;;1.50;1.50;;;5.90;98.00;;;;;;5095685;28;20955;-69
2021/11/22 00:15:11;;;;;;;1.53;1.33;;;6.00;98.00;;;;;;5095351;28;20473;-69
2021/11/22 00:17:41;;;;;;;1.30;1.20;;;6.00;98.00;;;;;;5095594;28;20454;-70
2021/11/22 00:20:12;;;;;;;1.67;1.60;;;5.90;98.00;;;;;;5095435;28;20492;-70
2021/11/22 00:22:43;;;;;;;1.20;1.00;;;5.90;98.00;;;;;;5094950;28;20518;-69
2021/11/22 00:25:11;;;;;;;1.50;1.20;;;5.90;98.00;;;;;;5094750;28;20452;-70
2021/11/22 00:27:38;;;;;;;2.20;1.60;;;6.00;98.00;;;;;;5095036;28;20460;-70
2021/11/22 00:30:07;;;;;;;1.47;1.10;;;5.90;98.00;;;;;;5095249;28;20516;-70
2021/11/22 00:32:35;;;;;;;1.20;1.10;;;6.00;98.00;;;;;;5095444;28;20463;-69
2021/11/22 00:35:03;;;;;;;1.20;1.10;;;6.10;98.00;;;;;;5095245;28;20458;-70
2021/11/22 00:37:35;;;;;;;1.80;1.70;;;6.10;98.00;;;;;;5095391;28;20452;-69
2021/11/22 00:40:02;;;;;;;2.70;1.93;;;6.00;98.00;;;;;;5095028;28;20919;-69
2021/11/22 00:42:33;;;;;;;1.20;1.10;;;6.00;98.00;;;;;;5095463;28;20860;-69
2021/11/22 00:45:00;;;;;;;3.20;1.27;;;6.00;98.00;;;;;;5095013;28;20450;-70
2021/11/22 00:50:10;;;;;;;1.50;1.50;;;5.90;98.00;;;;;;5095265;28;20990;-70
2021/11/22 00:52:39;;;;;;;2.07;1.30;;;5.80;98.00;;;;;;5095182;28;20452;-70
2021/11/22 00:55:07;;;;;;;1.20;1.00;;;5.90;98.00;;;;;;5094929;28;20967;-70
2021/11/22 00:57:34;;;;;;;2.90;1.70;;;5.90;98.00;;;;;;5094937;28;20886;-69
2021/11/22 01:00:01;;;;;;;1.83;1.20;;;5.70;98.00;;;;;;5094756;28;20888;-69
2021/11/22 01:02:28;;;;;;;1.20;1.07;;;5.60;98.00;;;;;;5094716;28;20457;-69
2021/11/22 01:04:56;;;;;;;1.30;1.20;;;5.70;98.00;;;;;;5094534;28;20462;-71
2021/11/22 01:07:23;;;;;;;1.33;1.27;;;5.80;98.00;;;;;;5094671;28;20509;-70
2021/11/22 01:09:54;;;;;;;1.30;1.10;;;5.90;98.00;;;;;;5094279;28;20461;-70
2021/11/22 01:12:21;;;;;;;2.07;1.10;;;5.80;98.00;;;;;;5094577;28;20469;-70
2021/11/22 01:14:49;;;;;;;2.47;1.37;;;5.90;98.00;;;;;;5094257;28;20468;-69
2021/11/22 01:17:16;;;;;;;1.20;1.03;;;5.80;98.00;;;;;;5094476;28;20953;-70
2021/11/22 01:19:52;;;;;;;1.37;1.20;;;5.80;98.00;;;;;;5094473;28;20461;-69
2021/11/22 01:22:20;;;;;;;1.67;1.57;;;5.70;98.00;;;;;;5094375;28;21180;-69
2021/11/22 01:24:47;;;;;;;3.10;1.40;;;5.70;98.00;;;;;;5094100;28;20454;-69
2021/11/22 01:27:16;;;;;;;1.10;1.00;;;5.70;98.00;;;;;;5094488;28;20456;-69
2021/11/22 01:29:44;;;;;;;1.50;1.10;;;5.70;98.00;;;;;;5094263;28;20472;-69
2021/11/22 01:32:11;;;;;;;1.20;1.10;;;5.90;98.00;;;;;;5094417;28;20450;-69
2021/11/22 01:34:38;;;;;;;1.60;1.07;;;5.80;98.00;;;;;;5094133;28;20467;-69
2021/11/22 01:37:05;;;;;;;1.73;1.20;;;5.60;98.00;;;;;;5094285;28;20524;-69
2021/11/22 01:39:32;;;;;;;2.00;1.40;;;5.50;98.00;;;;;;5093751;28;20460;-69
2021/11/22 01:42:00;;;;;;;1.30;1.30;;;5.50;98.00;;;;;;5094139;28;20875;-69
2021/11/22 01:44:28;;;;;;;1.50;1.37;;;5.60;98.00;;;;;;5094039;28;20817;-70
2021/11/22 01:46:55;;;;;;;1.20;1.10;;;5.70;98.00;;;;;;5094173;28;20480;-69
2021/11/22 01:49:22;;;;;;;1.20;0.90;;;5.70;98.00;;;;;;5093984;28;20480;-69
2021/11/22 01:51:50;;;;;;;1.20;1.10;;;5.80;98.00;;;;;;5094209;28;20538;-69
2021/11/22 01:54:17;;;;;;;1.20;1.00;;;5.90;98.00;;;;;;5093984;28;20509;-69
2021/11/22 02:02:05;;;;;;;1.50;1.40;;;6.00;98.00;;;;;;5150765;23;20494;-64
2021/11/22 02:04:33;;;;;;;4.33;1.60;;;6.20;98.00;;;;;;5013091;28;20446;-64
2021/11/22 02:07:00;;;;;;;1.20;1.10;;;6.10;98.00;;;;;;5013422;28;20466;-65
2021/11/22 02:09:27;;;;;;;2.70;1.60;;;5.90;98.00;;;;;;5013832;28;20856;-65
2021/11/22 02:11:55;;;;;;;1.20;1.10;;;6.00;98.00;;;;;;5013645;28;20463;-65
2021/11/22 02:14:22;;;;;;;1.20;1.10;;;5.90;98.00;;;;;;5013589;28;20466;-65
2021/11/22 02:16:49;;;;;;;2.47;1.80;;;5.80;98.00;;;;;;5013729;28;20511;-65
2021/11/22 02:19:17;;;;;;;1.60;1.10;;;5.70;98.00;;;;;;5012337;28;20452;-65
2021/11/22 02:21:46;;;;;;;1.40;1.13;;;5.70;98.00;;;;;;5013370;28;20488;-65
2021/11/22 02:24:13;;;;;;;1.40;1.40;;;5.60;98.00;;;;;;5013322;28;20454;-65
2021/11/22 02:26:40;;;;;;;1.50;1.20;;;5.60;98.00;;;;;;5013577;28;20465;-64
2021/11/22 02:29:08;;;;;;;1.30;1.07;;;5.60;98.00;;;;;;5012641;28;20515;-65
2021/11/22 02:31:36;;;;;;;1.87;1.20;;;5.60;98.00;;;;;;5013295;28;20515;-65
2021/11/22 02:34:07;;;;;;;1.63;1.53;;;5.60;98.00;;;;;;5013402;28;20966;-65
2021/11/22 02:36:35;;;;;;;1.63;1.37;;;5.60;98.00;;;;;;5013263;28;20452;-64
2021/11/22 02:39:04;;;;;;;1.50;1.47;;;5.60;98.00;;;;;;5013074;28;20520;-65
2021/11/22 02:41:33;;;;;;;1.27;1.23;;;5.70;98.00;;;;;;5013231;28;20543;-65
2021/11/22 02:44:02;;;;;;;1.63;1.57;;;5.50;98.00;;;;;;5013070;28;20465;-65
2021/11/22 02:46:29;;;;;;;1.30;1.10;;;5.50;98.00;;;;;;5013015;28;20467;-65
2021/11/22 02:48:57;;;;;;;1.73;1.13;;;5.50;98.00;;;;;;5012969;28;21093;-65
2021/11/22 02:51:24;;;;;;;1.30;1.20;;;5.50;98.00;;;;;;5013038;28;20767;-65
2021/11/22 02:53:58;;;;;;;1.20;1.13;;;5.50;98.00;;;;;;5012963;28;20464;-65
2021/11/22 02:56:30;;;;;;;1.20;1.10;;;5.40;98.00;;;;;;5013266;28;20889;-65
2021/11/22 02:58:58;;;;;;;1.50;1.17;;;5.40;98.00;;;;;;5012951;28;20495;-65
2021/11/22 03:01:26;;;;;;;3.37;1.73;;;5.50;98.00;;;;;;5012499;28;20544;-65
2021/11/22 03:03:56;;;;;;;1.73;1.20;;;5.50;98.00;;;;;;5012977;28;20875;-64
2021/11/22 03:06:24;;;;;;;3.10;1.67;;;5.50;98.00;;;;;;5012565;28;20459;-65
2021/11/22 03:08:52;;;;;;;1.67;1.37;;;5.40;98.00;;;;;;5011377;28;20459;-65
2021/11/22 03:11:20;;;;;;;1.50;1.20;;;5.40;98.00;;;;;;5012730;28;20603;-65
2021/11/22 03:13:49;;;;;;;1.37;1.10;;;5.40;98.00;;;;;;5012234;28;20472;-64
2021/11/22 03:16:18;;;;;;;1.13;1.03;;;5.50;98.00;;;;;;5012395;28;20461;-65
2021/11/22 03:18:45;;;;;;;1.30;1.10;;;5.50;98.00;;;;;;5012325;28;21064;-65
2021/11/22 03:21:12;;;;;;;1.20;1.10;;;5.60;98.00;;;;;;5012274;28;20561;-65
2021/11/22 03:23:41;;;;;;;1.20;1.00;;;5.60;98.00;;;;;;5012242;28;20468;-64
2021/11/22 03:26:14;;;;;;;1.50;1.47;;;5.70;98.00;;;;;;5012248;28;20941;-65
2021/11/22 03:28:41;;;;;;;1.57;1.40;;;5.70;98.00;;;;;;5011325;28;20995;-65
2021/11/22 03:31:10;;;;;;;1.10;1.00;;;5.70;98.00;;;;;;5012060;28;20523;-64
2021/11/22 03:33:37;;;;;;;1.83;1.23;;;5.70;98.00;;;;;;5012299;28;20527;-65
2021/11/22 03:36:06;;;;;;;1.57;1.27;;;5.80;98.00;;;;;;5012201;28;20462;-65
2021/11/22 03:38:34;;;;;;;1.40;1.30;;;5.80;98.00;;;;;;5012112;28;20465;-64
2021/11/22 03:41:03;;;;;;;1.17;1.13;;;5.70;98.00;;;;;;5011178;28;20484;-64
2021/11/22 03:43:34;;;;;;;1.20;1.00;;;5.70;98.00;;;;;;5012059;28;20465;-65
2021/11/22 03:46:02;;;;;;;1.63;1.20;;;5.80;98.00;;;;;;5012075;28;20456;-65
2021/11/22 03:48:33;;;;;;;4.20;1.87;;;5.90;98.00;;;;;;5012167;28;20558;-65
2021/11/22 03:51:00;;;;;;;3.63;1.30;;;6.00;98.00;;;;;;5012015;28;20903;-65
2021/11/22 03:53:27;;;;;;;1.50;1.20;;;6.00;98.00;;;;;;5012095;28;20502;-65
2021/11/22 03:55:54;;;;;;;1.47;1.47;;;6.00;98.00;;;;;;5011952;28;20451;-65
2021/11/22 03:58:21;;;;;;;1.20;1.00;;;5.90;98.00;;;;;;5012099;28;20456;-65
2021/11/22 04:00:48;;;;;;;3.00;1.70;;;6.00;98.00;;;;;;5011651;28;20525;-65
2021/11/22 04:03:18;;;;;;;1.93;1.73;;;6.00;98.00;;;;;;5011982;28;20512;-64
2021/11/22 04:05:47;;;;;;;1.20;1.20;;;5.90;98.00;;;;;;5012088;28;20506;-65
2021/11/22 04:08:15;;;;;;;1.50;1.10;;;5.90;98.00;;;;;;5011075;28;20521;-65
2021/11/22 04:10:42;;;;;;;1.73;1.63;;;5.90;98.00;;;;;;5012217;28;20927;-65
2021/11/22 04:13:11;;;;;;;1.23;1.10;;;5.90;98.00;;;;;;5012150;28;20461;-65
2021/11/22 04:15:39;;;;;;;1.20;1.00;;;5.90;98.00;;;;;;5011982;28;20460;-65
2021/11/22 04:18:07;;;;;;;1.20;1.20;;;6.00;98.00;;;;;;5012239;28;20456;-65
2021/11/22 04:20:34;;;;;;;1.50;1.17;;;5.90;98.00;;;;;;5012172;28;20527;-65
2021/11/22 04:23:05;;;;;;;1.30;1.00;;;5.90;98.00;;;;;;5012038;28;20830;-64
2021/11/22 04:25:32;;;;;;;1.20;1.10;;;5.70;98.00;;;;;;5011769;28;20841;-63
2021/11/22 04:28:01;;;;;;;2.70;1.30;;;5.60;98.00;;;;;;5011559;28;20461;-63
2021/11/22 04:30:30;;;;;;;1.10;1.07;;;5.50;98.00;;;;;;5011585;28;20969;-65
2021/11/22 04:32:58;;;;;;;2.30;1.60;;;5.50;98.00;;;;;;5011694;28;20867;-65
2021/11/22 04:35:25;;;;;;;1.50;1.13;;;5.40;98.00;;;;;;5011472;28;20931;-65
2021/11/22 04:37:52;;;;;;;1.77;1.43;;;5.30;98.00;;;;;;5011499;28;20521;-65
2021/11/22 04:40:21;;;;;;;1.57;1.30;;;5.30;98.00;;;;;;5011567;28;20461;-65
2021/11/22 04:42:49;;;;;;;1.77;1.20;;;5.40;98.00;;;;;;5011362;28;20576;-65
2021/11/22 04:45:17;;;;;;;4.70;1.43;;;5.40;98.00;;;;;;5011422;28;20846;-65
2021/11/22 04:47:45;;;;;;;1.33;1.27;;;5.30;98.00;;;;;;5011763;28;20455;-66
2021/11/22 04:50:13;;;;;;;1.30;1.10;;;5.40;98.00;;;;;;5010141;28;20465;-65
2021/11/22 04:52:40;;;;;;;1.67;1.30;;;5.50;98.00;;;;;;5011197;28;20455;-65
2021/11/22 04:55:09;;;;;;;1.30;1.13;;;5.50;98.00;;;;;;5013922;28;20467;-65
2021/11/22 04:57:38;;;;;;;1.40;1.30;;;5.50;98.00;;;;;;5015109;28;20521;-65
2021/11/22 05:00:06;;;;;;;1.40;1.30;;;5.50;98.00;;;;;;5015064;28;20515;-65
2021/11/22 05:02:34;;;;;;;1.57;1.47;;;5.60;98.00;;;;;;5015238;28;20489;-65
2021/11/22 05:05:01;;;;;;;1.20;1.10;;;5.50;98.00;;;;;;5014809;28;20461;-64
2021/11/22 05:07:28;;;;;;;1.20;1.10;;;5.60;98.00;;;;;;5014955;28;20469;-65
2021/11/22 05:09:55;;;;;;;2.40;1.53;;;5.70;98.00;;;;;;5014586;28;20463;-64
2021/11/22 05:12:22;;;;;;;1.83;1.53;;;5.70;98.00;;;;;;5014855;28;20465;-65
2021/11/22 05:14:51;;;;;;;1.27;1.10;;;5.70;98.00;;;;;;5014758;28;20473;-65
2021/11/22 05:17:18;;;;;;;1.50;1.10;;;5.70;98.00;;;;;;5014720;28;20459;-65
2021/11/22 05:19:47;;;;;;;1.10;1.07;;;5.60;98.00;;;;;;5014736;28;20493;-65
2021/11/22 05:22:18;;;;;;;1.20;1.00;;;5.60;98.00;;;;;;5013573;28;20933;-65
2021/11/22 05:24:50;;;;;;;1.20;1.10;;;5.70;98.00;;;;;;5014695;28;20566;-65
2021/11/22 05:27:17;;;;;;;1.33;1.30;;;5.70;98.00;;;;;;5014761;28;20454;-65
2021/11/22 05:29:45;;;;;;;1.23;1.20;;;5.70;98.00;;;;;;5014593;28;20471;-65
2021/11/22 05:32:16;;;;;;;2.27;1.30;;;5.80;98.00;;;;;;5014603;28;20462;-65
2021/11/22 05:34:44;;;;;;;1.87;1.20;;;5.80;98.00;;;;;;5014612;28;20816;-65
2021/11/22 05:37:11;;;;;;;1.30;1.13;;;5.70;98.00;;;;;;5014362;28;20460;-65
2021/11/22 05:39:39;;;;;;;2.03;1.30;;;5.70;98.00;;;;;;5013488;28;20460;-65
2021/11/22 05:42:06;;;;;;;1.47;1.47;;;5.70;98.00;;;;;;5014185;28;20492;-64
2021/11/22 05:44:35;;;;;;;1.50;1.37;;;5.80;98.00;;;;;;5014444;28;20865;-65
2021/11/22 05:47:05;;;;;;;4.00;1.90;;;5.80;98.00;;;;;;5014063;28;20462;-65
2021/11/22 05:49:36;;;;;;;1.20;1.20;;;5.90;98.00;;;;;;5014043;28;20463;-65
2021/11/22 05:52:05;;;;;;;2.10;1.40;;;5.90;98.00;;;;;;5014087;28;21016;-64
2021/11/22 05:54:32;;;;;;;1.50;1.13;;;5.90;98.00;;;;;;5013714;28;20454;-65
2021/11/22 05:57:01;;;;;;;3.10;1.87;;;5.90;98.00;;;;;;5013753;28;20457;-65
2021/11/22 05:59:29;;;;;;;1.67;1.50;;;5.90;98.00;;;;;;5013610;28;20515;-65
2021/11/22 06:01:56;;;;;;;4.80;2.03;;;5.90;98.00;;;;;;5013622;28;20484;-65
2021/11/22 06:04:23;;;;;;;2.20;1.40;;;5.90;98.00;;;;;;5012724;28;20951;-64
2021/11/22 06:06:53;;;;;;;1.10;1.00;;;6.00;98.00;;;;;;5013700;28;20513;-65
2021/11/22 06:09:20;;;;;;;1.13;1.00;;;5.90;98.00;;;;;;5013542;28;20491;-65
2021/11/22 06:11:47;;;;;;;2.53;1.93;;;5.90;98.00;;;;;;5013709;28;20454;-65
2021/11/22 06:14:14;;;;;;;1.20;1.00;;;6.00;98.00;;;;;;5013468;28;20464;-65
2021/11/22 06:16:41;;;;;;;1.10;1.10;;;6.00;98.00;;;;;;5013515;28;20455;-65
2021/11/22 06:19:10;;;;;;;1.53;1.50;;;6.00;98.00;;;;;;5013410;28;20940;-65
2021/11/22 06:21:37;;;;;;;1.73;1.20;;;6.10;98.00;;;;;;5013379;28;20460;-65
2021/11/22 06:24:06;;;;;;;1.70;1.63;;;6.10;98.00;;;;;;5013440;28;20463;-65
2021/11/22 06:26:34;;;;;;;1.13;1.00;;;6.00;98.00;;;;;;5012198;28;20458;-65
2021/11/22 06:29:01;;;;;;;2.90;1.67;;;5.90;98.00;;;;;;5013459;28;20888;-65
2021/11/22 06:31:28;;;;;;;1.70;1.10;;;5.90;98.00;;;;;;5013361;28;21023;-65
2021/11/22 06:33:57;;;;;;;3.00;1.93;;;5.90;98.00;;;;;;5013238;28;20538;-65
2021/11/22 06:36:24;;;;;;;1.40;1.40;;;5.90;98.00;;;;;;5012102;28;20531;-66
2021/11/22 06:38:51;;;;;;;1.90;1.70;;;5.90;98.00;;;;;;5013015;28;20461;-65
2021/11/22 06:41:20;;;;;;;1.53;1.20;;;5.90;98.00;;;;;;5013198;28;20470;-65
2021/11/22 06:43:47;;;;;;;1.37;1.27;;;5.90;98.00;;;;;;5013008;28;20879;-65
2021/11/22 06:46:15;;;;;;;1.40;1.30;;;6.00;98.00;;;;;;5013217;28;20466;-65
2021/11/22 06:48:42;;;;;;;3.10;1.83;;;6.10;98.00;;;;;;5013013;28;20467;-65
2021/11/22 06:51:09;;;;;;;1.20;1.10;;;6.10;98.00;;;;;;5012855;28;20458;-65
2021/11/22 06:53:36;;;;;;;1.10;1.00;;;6.10;98.00;;;;;;5012994;28;20511;-65
2021/11/22 06:56:04;;;;;;;1.60;1.60;;;6.00;98.00;;;;;;5011709;28;20462;-65
2021/11/22 06:58:33;;;;;;;1.80;1.30;;;6.00;98.00;;;;;;5013179;28;20590;-65
2021/11/22 07:01:00;;;;;;;1.10;1.00;;;6.00;98.00;;;;;;5013050;28;20467;-65
2021/11/22 07:03:28;;;;;;;4.80;2.03;;;6.10;98.00;;;;;;5012822;28;20557;-65
2021/11/22 07:05:56;;;;;;;1.30;1.20;;;6.10;98.00;;;;;;5013061;28;20463;-65
2021/11/22 07:08:25;;;;;;;3.03;1.47;;;6.10;98.00;;;;;;5012363;28;20467;-65
2021/11/22 07:10:52;;;;;;;1.37;1.20;;;6.10;98.00;;;;;;5011600;28;20463;-65
2021/11/22 07:13:19;;;;;;;2.27;1.33;;;6.00;98.00;;;;;;5011844;28;20458;-65
2021/11/22 07:15:48;;;;;;;1.50;1.17;;;6.00;98.00;;;;;;5012174;28;21059;-65
2021/11/22 07:18:15;;;;;;;1.67;1.33;;;6.00;98.00;;;;;;5011235;28;20463;-65
2021/11/22 07:20:46;;;;;;;1.20;1.10;;;5.90;98.00;;;;;;5012684;28;20875;-65
2021/11/22 07:23:14;;;;;;;1.20;1.10;;;6.00;98.00;;;;;;5012437;28;20493;-65
2021/11/22 07:25:41;;;;;;;1.10;1.00;;;6.00;98.00;;;;;;5012276;28;20465;-66
2021/11/22 07:28:08;;;;;;;1.47;1.37;;;6.10;98.00;;;;;;5012300;28;20540;-66
2021/11/22 07:30:36;;;;;;;1.50;1.10;;;6.10;98.00;;;;;;5012334;28;20524;-65
2021/11/22 07:33:05;;;;;;;1.70;1.70;;;6.20;98.00;;;;;;5012509;28;20976;-65
2021/11/22 07:35:32;;;;;;;3.87;2.10;;;6.10;98.00;;;;;;5011965;28;20459;-65
2021/11/22 07:38:00;;;;;;;3.73;1.60;;;6.10;98.00;;;;;;5012217;28;20468;-65
2021/11/22 07:40:27;;;;;;;1.30;1.23;;;6.00;98.00;;;;;;5012271;28;20470;-65
2021/11/22 07:42:55;;;;;;;1.40;1.30;;;6.10;98.00;;;;;;5012124;28;20484;-65
2021/11/22 07:45:24;;;;;;;1.20;1.10;;;6.10;98.00;;;;;;5012361;28;20470;-66
2021/11/22 07:47:51;;;;;;;5.07;3.00;;;6.10;98.00;;;;;;5012302;28;20886;-65
2021/11/22 07:50:21;;;;;;;5.60;1.87;;;6.10;98.00;;;;;;5011996;28;20874;-65
2021/11/22 07:52:48;;;;;;;2.10;1.10;;;6.10;98.00;;;;;;5011981;28;20514;-64
2021/11/22 07:55:15;;;;;;;1.40;1.10;;;6.20;98.00;;;;;;5011615;28;20862;-65
2021/11/22 07:57:43;;;;;;;1.50;1.30;;;6.20;98.00;;;;;;5010921;28;20461;-64
2021/11/22 08:00:12;;;;;;;1.20;1.20;;;6.20;98.00;;;;;;5011772;28;20588;-65
2021/11/22 08:02:40;;;;;;;1.30;1.30;;;6.00;98.00;;;;;;5011998;28;20491;-65
2021/11/22 08:05:09;;;;;;;1.20;1.20;;;6.10;98.00;;;;;;5011880;28;20470;-64
2021/11/22 08:07:40;;;;;;;4.20;1.20;;;6.10;98.00;;;;;;5009723;28;21044;-64
2021/11/22 08:10:23;;;;;;;1.30;1.10;;;6.30;98.00;;;;;;5005210;28;20466;-63
2021/11/22 08:12:52;;;;;;;1.30;1.30;;;6.50;98.00;;;;;;5009016;28;20541;-64
2021/11/22 08:15:20;;;;;;;1.10;1.00;;;6.40;98.00;;;;;;5009422;28;20447;-64
2021/11/22 08:17:48;;;;;;;2.07;1.10;;;6.30;98.00;;;;;;5009195;28;20518;-64
2021/11/22 08:20:16;;;;;;;1.13;1.00;;;6.40;98.00;;;;;;5009378;28;20462;-64
2021/11/22 08:22:47;;;;;;;1.40;1.20;;;6.40;98.00;;;;;;5009495;28;20494;-64
2021/11/22 08:25:17;;;;;;;1.10;1.10;;;6.40;98.00;;;;;;5009406;28;20468;-64
2021/11/22 08:27:45;;;;;;;1.50;1.20;;;6.40;98.00;;;;;;5010744;28;20514;-64
2021/11/22 08:30:15;;;;;;;1.10;1.00;;;6.40;98.00;;;;;;5012675;28;20465;-64
2021/11/22 08:32:44;;;;;;;1.40;1.30;;;6.40;98.00;;;;;;5015643;28;20472;-65
2021/11/22 08:35:12;;;;;;;1.20;1.00;;;6.40;98.00;;;;;;5015281;28;20463;-65
2021/11/22 08:37:40;;;;;;;1.20;1.10;;;6.40;98.00;;;;;;5015371;28;20459;-64
2021/11/22 08:40:12;;;;;;;2.70;1.77;;;6.50;98.00;;;;;;5015280;28;20454;-64
2021/11/22 08:42:40;;;;;;;1.30;1.13;;;6.50;98.00;;;;;;5015235;28;21070;-65
2021/11/22 08:45:08;;;;;;;1.20;1.10;;;6.50;98.00;;;;;;5015269;28;20551;-65
2021/11/22 08:47:35;;;;;;;1.67;1.37;;;6.40;98.00;;;;;;5015033;28;20459;-64
2021/11/22 08:50:03;;;;;;;1.50;1.30;;;6.40;98.00;;;;;;5030292;28;20468;-65
2021/11/22 08:52:30;;;;;;;1.43;1.10;;;6.40;98.00;;;;;;5015379;28;20988;-65
2021/11/22 08:54:57;;;;;;;1.87;1.40;;;6.40;98.00;;;;;;5014959;28;20560;-66
2021/11/22 08:57:26;;;;;;;1.20;1.07;;;6.40;98.00;;;;;;5014963;28;20523;-64
2021/11/22 08:59:54;;;;;;;1.37;1.03;;;6.40;98.00;;;;;;5015089;28;20876;-65
2021/11/22 09:02:22;;;;;;;1.30;1.30;;;6.40;98.00;;;;;;5014807;28;20902;-65
2021/11/22 09:04:50;;;;;;;2.43;1.40;;;6.40;98.00;;;;;;5014930;28;20457;-65
2021/11/22 09:07:17;;;;;;;1.30;1.30;;;6.60;98.00;;;;;;5029900;28;20487;-65
2021/11/22 09:09:44;;;;;;;1.73;1.27;;;6.80;98.00;;;;;;5014765;28;21028;-65
2021/11/22 09:12:12;;;;;;;1.20;1.20;;;6.80;98.00;;;;;;5014719;28;20464;-65
2021/11/22 09:14:41;;;;;;;1.20;1.10;;;6.80;98.00;;;;;;5014729;28;20605;-64
2021/11/22 09:17:09;;;;;;;3.00;1.30;;;6.80;98.00;;;;;;5014652;28;20462;-65
2021/11/22 09:19:37;;;;;;;1.10;1.00;;;6.70;98.00;;;;;;5014727;28;20630;-65
2021/11/22 09:22:10;;;;;;;1.43;1.30;;;6.70;98.00;;;;;;5014634;28;20503;-65
2021/11/22 09:24:37;;;;;;;2.40;1.20;;;7.00;98.00;;;;;;5014403;28;20579;-64
2021/11/22 09:27:05;;;;;;;1.10;1.00;;;7.10;98.00;;;;;;5014844;28;20856;-65
2021/11/22 09:29:32;;;;;;;3.90;1.93;;;7.10;98.00;;;;;;5014494;28;20465;-65
2021/11/22 09:32:01;;;;;;;1.47;1.30;;;7.10;98.00;;;;;;5014727;28;20549;-65
2021/11/22 09:34:28;;;;;;;1.70;1.37;;;7.10;98.00;;;;;;5013898;28;20451;-65
2021/11/22 09:36:55;;;;;;;1.10;1.00;;;7.10;98.00;;;;;;5014665;28;20469;-65
2021/11/22 09:39:23;;;;;;;1.70;1.20;;;7.10;98.00;;;;;;5013279;28;20521;-65
2021/11/22 09:41:51;;;;;;;1.67;1.60;;;7.10;98.00;;;;;;5014431;28;20970;-65
2021/11/22 09:44:21;;;;;;;1.30;1.30;;;7.10;98.00;;;;;;5029374;28;20489;-65
2021/11/22 09:46:49;;;;;;;1.57;1.23;;;7.20;98.00;;;;;;5029509;28;20487;-65
2021/11/22 09:49:17;;;;;;;1.13;1.00;;;7.20;98.00;;;;;;5014331;28;20471;-65
2021/11/22 09:51:45;;;;;;;1.30;1.10;;;7.20;98.00;;;;;;5013884;28;20951;-65
2021/11/22 09:54:12;;;;;;;1.60;1.37;;;7.10;98.00;;;;;;5014163;28;20450;-65
2021/11/22 09:56:40;;;;;;;1.13;0.93;;;7.10;98.00;;;;;;5013827;28;20461;-65
2021/11/22 09:59:07;;;;;;;1.40;1.30;;;7.10;98.00;;;;;;5013753;28;21205;-65
2021/11/22 10:01:36;;;;;;;2.40;1.43;;;7.20;98.00;;;;;;5013602;28;20475;-65
2021/11/22 10:04:07;;;;;;;3.13;1.37;;;7.20;98.00;;;;;;5013686;28;20520;-66
2021/11/22 10:06:48;;;;;;;1.57;1.47;;;7.30;98.00;;;;;;5013458;28;20466;-65
2021/11/22 10:09:41;;;;;;;2.80;1.40;;;7.30;98.00;;;;;;5013696;28;20453;-65
2021/11/22 10:12:16;;;;;;;1.20;1.03;;;7.50;98.00;;;;;;5009573;28;20808;-66
2021/11/22 10:14:48;;;;;;;1.20;1.00;;;7.40;98.00;;;;;;5010835;28;20470;-65
2021/11/22 10:17:27;;;;;;;1.97;1.10;;;7.50;98.00;;;;;;5010981;28;20510;-64
2021/11/22 10:20:19;;;;;;;1.40;1.20;;;7.40;98.00;;;;;;5010754;28;20468;-64
2021/11/22 10:22:51;;;;;;;1.20;1.00;;;7.30;98.00;;;;;;5010693;28;20456;-65
2021/11/22 10:25:20;;;;;;;1.53;1.17;;;7.40;98.00;;;;;;5010565;28;20461;-64
2021/11/22 10:27:51;;;;;;;1.20;1.07;;;7.40;98.00;;;;;;5025702;28;20459;-64
2021/11/22 10:30:35;;;;;;;1.10;1.00;;;7.60;98.00;;;;;;5009954;28;20818;-65
2021/11/22 10:33:07;;;;;;;1.10;1.00;;;7.60;98.00;;;;;;5010944;28;20459;-64
2021/11/22 10:35:40;;;;;;;1.10;1.00;;;7.60;98.00;;;;;;5010928;28;20473;-63
2021/11/22 10:38:12;;;;;;;1.93;1.30;;;7.60;98.00;;;;;;5010813;28;20470;-65
2021/11/22 10:40:57;;;;;;;1.20;1.17;;;7.60;98.00;;;;;;5002622;28;20487;-65
2021/11/22 10:43:32;;;;;;;1.20;1.10;;;7.60;98.00;;;;;;5004674;28;20497;-64
2021/11/22 10:45:59;;;;;;;1.30;1.30;;;7.60;98.00;;;;;;5010233;28;20463;-65
2021/11/22 10:48:29;;;;;;;1.40;1.10;;;7.60;98.00;;;;;;5009038;28;20466;-65
2021/11/22 10:51:10;;;;;;;1.50;1.20;;;7.60;98.00;;;;;;5008203;28;20514;-65
2021/11/22 10:53:42;;;;;;;1.20;1.00;;;7.50;98.00;;;;;;5009667;28;20510;-64
2021/11/22 10:56:14;;;;;;;1.10;1.00;;;7.40;98.00;;;;;;5010401;28;20478;-65
2021/11/22 10:58:59;;;;;;;2.60;1.30;;;7.30;98.00;;;;;;5010340;28;20930;-63
2021/11/22 11:01:42;;;;;;;1.10;1.00;;;7.30;98.00;;;;;;5010046;28;20963;-63
2021/11/22 11:04:18;;;;;;;1.43;1.10;;;7.30;98.00;;;;;;5002228;28;20497;-63
2021/11/22 11:07:05;;;;;;;1.40;1.10;;;7.50;98.00;;;;;;5009834;28;20474;-63
2021/11/22 11:09:35;;;;;;;1.20;1.20;;;7.40;98.00;;;;;;5010139;28;20471;-63
2021/11/22 11:12:11;;;;;;;1.30;1.10;;;7.40;98.00;;;;;;5010127;28;20460;-64
2021/11/22 11:14:41;;;;;;;1.10;1.10;;;7.50;98.00;;;;;;5008453;28;20963;-65
2021/11/22 11:17:14;;;;;;;1.10;0.90;;;7.40;98.00;;;;;;5009878;28;20509;-64
2021/11/22 11:19:42;;;;;;;1.20;1.00;;;7.50;98.00;;;;;;5009896;28;21016;-65
2021/11/22 11:22:10;;;;;;;1.33;1.27;;;7.70;98.00;;;;;;5009853;28;20466;-64
2021/11/22 11:24:38;;;;;;;1.10;1.10;;;7.80;98.00;;;;;;5009546;28;20499;-65
2021/11/22 11:27:06;;;;;;;1.10;1.03;;;7.80;98.00;;;;;;5009766;28;20456;-64
2021/11/22 11:29:36;;;;;;;1.20;1.03;;;7.70;98.00;;;;;;5008582;28;20463;-64
2021/11/22 11:32:04;;;;;;;1.10;1.00;;;7.70;98.00;;;;;;5009634;28;20520;-64
2021/11/22 11:34:34;;;;;;;1.10;1.00;;;7.70;98.00;;;;;;5009769;28;20522;-64
2021/11/22 11:37:39;;;;;;;1.97;1.20;;;7.60;98.00;;;;;;5009780;28;20465;-63
2021/11/22 11:40:28;;;;;;;1.73;1.20;;;7.60;98.00;;;;;;5002977;28;20523;-64
2021/11/22 11:43:48;;;;;;;1.10;0.97;;;7.60;98.00;;;;;;5008835;28;20478;-64
2021/11/22 11:46:24;;;;;;;1.20;1.00;;;7.60;98.00;;;;;;4930151;28;20498;-64
2021/11/22 11:49:00;;;;;;;1.30;1.10;;;7.50;98.00;;;;;;5001953;28;20463;-64
2021/11/22 11:51:37;;;;;;;1.20;1.10;;;7.60;98.00;;;;;;5007213;28;20919;-64
2021/11/22 11:54:13;;;;;;;2.83;1.40;;;7.70;98.00;;;;;;5009619;28;20462;-65
2021/11/22 11:56:51;;;;;;;1.93;1.40;;;7.70;98.00;;;;;;5009431;28;20965;-64
2021/11/22 11:59:22;;;;;;;1.47;1.13;;;7.70;98.00;;;;;;5009302;28;20460;-64
2021/11/22 12:02:01;;;;;;;1.10;1.00;;;7.70;98.00;;;;;;5008156;28;20502;-64
2021/11/22 12:04:31;;;;;;;1.10;0.93;;;7.60;98.00;;;;;;5013672;28;20931;-65
2021/11/22 12:07:00;;;;;;;1.10;0.90;;;7.60;98.00;;;;;;5013429;28;21037;-64
2021/11/22 12:09:34;;;;;;;1.17;1.07;;;7.70;98.00;;;;;;5013596;28;20926;-63
2021/11/22 12:12:22;;;;;;;1.20;1.00;;;7.80;98.00;;;;;;5013461;28;20470;-64
2021/11/22 12:14:56;;;;;;;1.30;1.23;;;7.80;98.00;;;;;;5011254;28;20505;-64
2021/11/22 12:18:01;;;;;;;1.13;1.10;;;7.80;98.00;;;;;;5013377;28;20472;-63
2021/11/22 12:20:50;;;;;;;1.20;1.10;;;7.80;98.00;;;;;;5013509;28;20945;-63
2021/11/22 12:23:21;;;;;;;1.10;0.97;;;7.80;98.00;;;;;;5005805;28;20459;-64
2021/11/22 12:25:52;;;;;;;1.10;1.00;;;7.80;98.00;;;;;;5012796;28;20460;-64
2021/11/22 12:28:54;;;;;;;1.10;1.10;;;7.80;98.00;;;;;;5012939;28;20459;-63
2021/11/22 12:31:35;;;;;;;1.40;1.30;;;7.80;98.00;;;;;;4986518;28;20470;-65
2021/11/22 12:34:06;;;;;;;3.20;1.33;;;7.80;98.00;;;;;;5012595;28;20524;-63
2021/11/22 12:36:39;;;;;;;1.60;1.50;;;7.80;98.00;;;;;;5012478;28;20511;-64
2021/11/22 12:39:16;;;;;;;2.50;1.27;;;7.80;98.00;;;;;;5012727;28;20886;-65
2021/11/22 12:41:45;;;;;;;1.10;1.00;;;7.80;98.00;;;;;;5012929;28;20460;-65
2021/11/22 12:44:16;;;;;;;1.20;1.00;;;7.80;98.00;;;;;;5012664;28;20479;-64
2021/11/22 12:46:54;;;;;;;1.23;1.10;;;7.90;98.00;;;;;;5004979;28;20537;-64
2021/11/22 12:49:37;;;;;;;1.20;1.17;;;8.00;98.00;;;;;;5009496;28;20561;-65
2021/11/22 12:52:18;;;;;;;1.20;1.00;;;8.00;98.00;;;;;;5012467;28;20967;-64
2021/11/22 12:55:09;;;;;;;1.40;1.17;;;8.00;98.00;;;;;;5012743;28;20485;-64
2021/11/22 12:57:37;;;;;;;1.60;1.43;;;8.00;98.00;;;;;;5012051;28;20961;-65
2021/11/22 13:00:25;;;;;;;1.30;1.17;;;7.90;98.00;;;;;;5012588;28;20482;-65
2021/11/22 13:03:09;;;;;;;1.20;1.00;;;8.00;98.00;;;;;;5012198;28;20489;-64
2021/11/22 13:05:57;;;;;;;1.20;1.03;;;8.00;98.00;;;;;;5012526;28;20490;-65
2021/11/22 13:08:50;;;;;;;1.10;1.00;;;8.00;98.00;;;;;;5012283;28;20472;-64
2021/11/22 13:11:28;;;;;;;2.23;1.20;;;8.10;98.00;;;;;;5012453;28;20469;-65
2021/11/22 13:13:58;;;;;;;1.60;1.20;;;8.00;98.00;;;;;;5004443;28;20455;-63
2021/11/22 13:16:28;;;;;;;1.10;1.00;;;7.90;98.00;;;;;;5012172;28;20494;-64
2021/11/22 13:18:58;;;;;;;1.20;1.00;;;7.90;98.00;;;;;;5012085;28;20564;-64
2021/11/22 13:21:28;;;;;;;1.10;0.90;;;7.90;98.00;;;;;;5011942;28;20463;-64